Bookmark and Share
Track history (hours):
 

Maersk Bali

Last reported at 2014-Mar-27 02:32 UTC. Time now 2014-Apr-23 19:08 UTC.
Position N 35°58' W 005°35'.
Warning: this ship's position is 27 days out of date.

Length 223 m; draft 11.2 m.

Type: Cargo ship. MMSI: 563102000.

NotesDate/timePositionNaut miles runAvg speedWind from/ knotsBaromVisibWave heightAir tempDewpointWater temp
2014-Mar-27 02:32N 35°58' W 005°35'8 8.0
2014-Mar-27 01:34N 36°00' W 005°26'9 8.8
2014-Mar-27 00:34N 36°09' W 005°25'1 1.4
2014-Mar-26 23:32N 36°08' W 005°26'0 0.0
2014-Mar-26 20:32N 36°08' W 005°26'0 0.0
2014-Mar-26 19:32N 36°08' W 005°26'0 0.0
2014-Mar-26 17:32N 36°08' W 005°26'0 0.0
2014-Mar-26 16:23N 36°08' W 005°26'0 0.0
2014-Mar-26 15:32N 36°08' W 005°26'0 0.0
2014-Mar-26 14:32N 36°08' W 005°26'0 0.0
2014-Mar-26 13:32N 36°08' W 005°26'0 0.0
2014-Mar-26 12:32N 36°08' W 005°26'0 0.0
2014-Mar-26 11:29N 36°08' W 005°26'0 0.0
2014-Mar-26 10:32N 36°08' W 005°26'0 0.0
2014-Mar-26 09:32N 36°08' W 005°26'0 0.0
2014-Mar-26 08:14N 36°08' W 005°26'0 0.0
2014-Mar-26 07:20N 36°08' W 005°26'0 0.0
2014-Mar-26 00:32N 36°08' W 005°26'0 0.0
2014-Mar-25 23:32N 36°08' W 005°26'0 0.0
2014-Mar-25 22:23N 36°08' W 005°26'0 0.0
2014-Mar-25 21:32N 36°08' W 005°26'0 0.0
2014-Mar-25 20:29N 36°08' W 005°26'0 0.0
2014-Mar-25 19:32N 36°08' W 005°26'0 0.1
2014-Mar-25 18:34N 36°08' W 005°26'3 2.9
2014-Mar-25 17:33N 36°07' W 005°23'10 9.8
2014-Mar-25 16:33N 36°06' W 005°11'37616.0
2014-Mar-24 17:01N 37°34' E 002°26'59212.5
2014-Mar-22 17:31N 35°49' E 014°32'0 0.0
2014-Mar-22 14:25N 35°49' E 014°32'3 3.0
2014-Mar-22 13:33N 35°48' E 014°35'1514.9
2014-Mar-22 12:34N 35°48' E 014°53'2120.8
2014-Mar-22 11:34N 35°49' E 015°19'43016.4
2014-Mar-21 09:21N 37°21' E 024°02'1418.2
2014-Mar-21 08:34N 37°34' E 024°09'2317.4
2014-Mar-21 07:16N 37°51' E 024°28'115 4.0
2014-Mar-20 02:33N 39°30' E 025°44'2110.5
2014-Mar-20 00:34N 39°50' E 025°50'5911.3
2014-Mar-19 19:20N 40°28' E 026°50'8212.0
2014-Mar-19 12:32N 40°44' E 028°35'1313.0
2014-Mar-19 11:33N 40°45' E 028°52'1313.1
2014-Mar-19 10:33N 40°44' E 029°10'1311.5
2014-Mar-19 09:25N 40°45' E 029°27'910.5
2014-Mar-19 08:32N 40°45' E 029°39'3 2.8
2014-Mar-19 07:30N 40°46' E 029°43'24 1.5
2014-Mar-18 15:33N 40°46' E 029°10'2 2.3
2014-Mar-18 14:33N 40°47' E 029°08'0 0.4
2014-Mar-18 13:33N 40°47' E 029°07'0 0.2
2014-Mar-18 12:33N 40°48' E 029°07'0 0.3
2014-Mar-18 11:33N 40°48' E 029°07'0 0.5
2014-Mar-18 10:32N 40°48' E 029°06'1 0.6
2014-Mar-18 09:33N 40°48' E 029°06'1 0.8
2014-Mar-18 08:33N 40°48' E 029°05'0 0.5
2014-Mar-18 07:33N 40°48' E 029°04'  

Dump ship's entire track history

sailing weather and tide predictions

Maersk Bali — 9V7499 — position and weather